createdAt,value
2022-11-10T07:41:08.936Z,2.38
2022-11-10T07:43:35.650Z,2.13
2022-11-10T07:46:02.261Z,1.85
2022-11-10T07:48:28.884Z,2.22
2022-11-10T07:50:55.479Z,1.90
2022-11-10T07:53:22.522Z,1.83
2022-11-10T07:55:49.559Z,2.50
2022-11-10T07:58:18.170Z,2.13
2022-11-10T08:00:46.364Z,3.45
2022-11-10T08:03:21.538Z,3.08
2022-11-10T08:05:49.011Z,2.92
2022-11-10T08:08:15.757Z,2.88
2022-11-10T08:10:42.520Z,3.50
2022-11-10T08:13:11.588Z,3.85
2022-11-10T08:15:39.160Z,3.00
2022-11-10T08:18:13.020Z,3.45
2022-11-10T08:20:39.656Z,2.90
2022-11-10T08:23:06.947Z,3.50
2022-11-10T08:25:35.758Z,2.75
2022-11-10T08:28:09.124Z,2.58
2022-11-10T08:30:37.799Z,3.25
2022-11-10T08:33:06.087Z,3.47
2022-11-10T08:35:36.693Z,3.47
2022-11-10T08:38:15.072Z,3.35
2022-11-10T08:40:42.668Z,2.83
2022-11-10T08:43:09.956Z,2.72
2022-11-10T08:45:38.274Z,3.00
2022-11-10T08:48:16.704Z,3.05
2022-11-10T08:50:43.527Z,3.08
2022-11-10T08:53:13.507Z,2.90
2022-11-10T08:55:40.895Z,3.10
2022-11-10T08:58:10.035Z,2.30
2022-11-10T09:00:36.731Z,2.55
2022-11-10T09:03:08.340Z,2.28
2022-11-10T09:05:36.020Z,2.15
2022-11-10T09:08:04.084Z,2.25
2022-11-10T09:10:35.129Z,1.90
2022-11-10T09:13:03.201Z,1.92
2022-11-10T09:15:31.250Z,1.73
2022-11-10T09:17:59.675Z,1.90
2022-11-10T09:20:28.074Z,1.63
2022-11-10T09:22:55.096Z,1.65
2022-11-10T09:25:22.381Z,2.03
2022-11-10T09:27:49.099Z,1.75
2022-11-10T09:30:17.956Z,1.85
2022-11-10T09:32:46.642Z,1.92
2022-11-10T09:35:13.662Z,1.30
2022-11-10T09:37:41.020Z,1.30
2022-11-10T09:40:17.567Z,1.65
2022-11-10T09:42:45.897Z,1.75
2022-11-10T09:45:23.517Z,1.50
2022-11-10T09:47:57.786Z,1.30
2022-11-10T09:50:30.032Z,1.98
2022-11-10T09:52:57.923Z,2.03
2022-11-10T09:55:30.675Z,1.02
2022-11-10T09:57:59.648Z,1.63
2022-11-10T10:00:28.663Z,1.50
2022-11-10T10:03:12.687Z,1.60
2022-11-10T10:05:51.635Z,1.80
2022-11-10T10:08:40.612Z,1.45
2022-11-10T10:11:41.068Z,1.30
2022-11-10T10:19:44.915Z,1.58
2022-11-10T10:22:14.572Z,1.33
2022-11-10T10:24:41.355Z,1.50
2022-11-10T10:27:13.050Z,1.17
2022-11-10T10:29:49.238Z,1.08
2022-11-10T10:32:17.108Z,1.25
2022-11-10T10:34:45.264Z,7.45
2022-11-10T10:37:39.295Z,3.30
2022-11-10T10:40:06.697Z,2.67
2022-11-10T10:42:36.329Z,1.73
2022-11-10T10:45:19.895Z,2.47
2022-11-10T10:47:49.445Z,1.35
2022-11-10T10:50:27.004Z,1.70
2022-11-10T10:53:21.856Z,1.52
2022-11-10T10:55:54.534Z,1.80
2022-11-10T10:58:23.562Z,1.73
2022-11-10T11:00:55.070Z,1.23
2022-11-10T11:03:39.913Z,1.38
2022-11-10T11:06:15.595Z,1.38
2022-11-10T11:08:59.634Z,2.38
2022-11-10T11:11:33.120Z,1.70
2022-11-10T11:14:26.187Z,1.35
2022-11-10T11:16:55.076Z,1.25
2022-11-10T11:19:26.119Z,1.60
2022-11-10T11:22:30.356Z,1.75
2022-11-10T11:25:28.613Z,1.30
2022-11-10T11:28:40.820Z,1.27
2022-11-10T11:31:43.459Z,2.50
2022-11-10T11:34:12.979Z,1.27
2022-11-10T11:37:14.156Z,1.33
2022-11-10T11:40:08.383Z,1.60
2022-11-10T11:42:59.770Z,1.40
2022-11-10T11:45:32.645Z,1.80
2022-11-10T11:48:27.014Z,1.63
2022-11-10T11:51:28.400Z,1.50
2022-11-10T11:54:11.324Z,1.67
2022-11-10T11:56:47.529Z,1.50
2022-11-10T11:59:23.487Z,1.38
2022-11-10T12:02:21.160Z,1.40
2022-11-10T12:05:08.608Z,1.63
2022-11-10T12:07:58.234Z,1.50
2022-11-10T12:10:41.971Z,1.83
2022-11-10T12:13:30.191Z,1.58
2022-11-10T12:16:21.948Z,1.63
2022-11-10T12:19:15.474Z,1.50
2022-11-10T12:22:24.719Z,1.65
2022-11-10T12:25:28.023Z,1.95
2022-11-10T12:28:17.198Z,2.10
2022-11-10T12:30:45.817Z,1.67
2022-11-10T12:33:48.115Z,1.60
2022-11-10T12:36:18.271Z,1.33
2022-11-10T12:39:17.131Z,1.80
2022-11-10T12:41:58.036Z,1.63
2022-11-10T12:44:34.940Z,1.48
2022-11-10T12:47:05.488Z,1.85
2022-11-10T12:49:41.482Z,1.65
2022-11-10T12:52:23.418Z,2.95
2022-11-10T12:54:50.046Z,1.42
2022-11-10T12:57:21.646Z,1.70
2022-11-10T13:00:02.391Z,1.55
2022-11-10T13:02:42.458Z,1.58
2022-11-10T13:05:29.405Z,1.75
2022-11-10T13:08:24.128Z,1.73
2022-11-10T13:10:54.530Z,2.05
2022-11-10T13:13:22.767Z,2.47
2022-11-10T13:15:55.675Z,2.17
2022-11-10T13:18:31.711Z,2.30
2022-11-10T13:20:59.607Z,2.08
2022-11-10T13:23:48.613Z,1.95
2022-11-10T13:26:40.098Z,2.33
2022-11-10T13:29:34.916Z,1.90
2022-11-10T13:32:07.601Z,1.60
2022-11-10T13:34:38.935Z,2.00
2022-11-10T13:37:45.212Z,1.90
2022-11-10T13:40:20.867Z,1.58
2022-11-10T13:42:59.952Z,1.95
2022-11-10T13:45:39.894Z,2.03
2022-11-10T13:48:12.416Z,1.90
2022-11-10T13:50:41.782Z,2.75
2022-11-10T13:53:17.168Z,3.08
2022-11-10T13:56:00.561Z,2.10
2022-11-10T13:58:34.035Z,2.22
2022-11-10T14:01:18.910Z,2.30
2022-11-10T14:03:45.604Z,2.90
2022-11-10T14:06:22.605Z,2.15
2022-11-10T14:09:13.628Z,1.90
2022-11-10T14:11:51.278Z,2.00
2022-11-10T14:14:21.692Z,2.13
2022-11-10T14:16:49.934Z,1.90
2022-11-10T14:19:23.110Z,1.83
2022-11-10T14:21:58.124Z,1.65
2022-11-10T14:24:35.587Z,1.80
2022-11-10T14:27:09.104Z,1.55
2022-11-10T14:29:40.641Z,1.60
2022-11-10T14:32:21.237Z,1.75
2022-11-10T14:34:50.123Z,1.60
2022-11-10T14:37:24.763Z,1.33
2022-11-10T14:39:56.965Z,1.60
2022-11-10T14:42:30.210Z,1.50
2022-11-10T14:45:15.882Z,2.05
2022-11-10T14:47:42.802Z,2.13
2022-11-10T14:50:20.130Z,1.95
2022-11-10T14:52:50.805Z,1.67
2022-11-10T14:55:19.918Z,1.73
2022-11-10T14:57:53.449Z,1.70
2022-11-10T15:00:25.240Z,1.42
2022-11-10T15:02:57.531Z,1.60
2022-11-10T15:05:25.380Z,2.85
2022-11-10T15:07:55.609Z,2.50
2022-11-10T15:10:40.182Z,1.63
2022-11-10T15:13:19.684Z,1.55
2022-11-10T15:15:46.355Z,1.60
2022-11-10T15:18:29.988Z,1.73
2022-11-10T15:21:04.762Z,3.08
2022-11-10T15:23:38.043Z,2.28
2022-11-10T15:26:06.289Z,2.50
2022-11-10T15:28:35.252Z,2.45
2022-11-10T15:31:06.200Z,2.20
2022-11-10T15:33:35.896Z,2.67
2022-11-10T15:36:17.985Z,2.63
2022-11-10T15:38:44.737Z,5.68
2022-11-10T15:41:26.753Z,15.57
2022-11-10T15:43:54.143Z,11.57
2022-11-10T15:46:24.257Z,9.80
2022-11-10T15:48:52.489Z,5.45
2022-11-10T15:51:25.874Z,13.07
2022-11-10T15:53:54.218Z,12.02
2022-11-10T15:56:23.019Z,14.23
2022-11-10T15:58:56.582Z,9.35
2022-11-10T16:01:27.795Z,4.63
2022-11-10T16:03:55.175Z,3.22
2022-11-10T16:06:21.914Z,3.17
2022-11-10T16:08:48.540Z,3.13
2022-11-10T16:11:20.917Z,2.72
2022-11-10T16:13:50.155Z,3.05
2022-11-10T16:16:18.660Z,7.15
2022-11-10T16:18:46.123Z,7.35
2022-11-10T16:21:14.431Z,4.97
2022-11-10T16:23:41.915Z,5.63
2022-11-10T16:26:13.278Z,4.28
2022-11-10T16:28:43.893Z,3.25
2022-11-10T16:31:11.484Z,3.63
2022-11-10T16:33:38.502Z,4.03
2022-11-10T16:36:05.550Z,3.35
2022-11-10T16:38:32.586Z,3.22
2022-11-10T16:41:01.670Z,3.65
2022-11-10T16:43:30.061Z,2.78
2022-11-10T16:46:00.276Z,3.42
2022-11-10T16:48:30.501Z,3.58
2022-11-10T16:50:58.951Z,5.03
2022-11-10T16:53:28.298Z,4.07
2022-11-10T16:55:55.062Z,3.45
2022-11-10T16:58:24.222Z,3.45
2022-11-10T17:00:51.279Z,4.23
2022-11-10T17:03:24.076Z,4.63
2022-11-10T17:05:50.720Z,7.05
2022-11-10T17:08:29.422Z,4.90
2022-11-10T17:10:56.877Z,4.85
2022-11-10T17:13:24.514Z,5.10
2022-11-10T17:15:53.834Z,4.25
2022-11-10T17:18:24.096Z,3.60
2022-11-10T17:20:53.051Z,3.28
2022-11-10T17:23:24.824Z,2.50
2022-11-10T17:25:54.053Z,3.30
2022-11-10T17:28:20.976Z,3.45
2022-11-10T17:30:47.624Z,3.67
2022-11-10T17:33:14.375Z,4.47
2022-11-10T17:35:46.700Z,4.35
2022-11-10T17:38:22.388Z,3.53
2022-11-10T17:40:49.146Z,3.53
2022-11-10T17:43:15.935Z,3.30
2022-11-10T17:45:42.543Z,4.10
2022-11-10T17:48:09.841Z,4.07
2022-11-10T17:50:38.286Z,3.33
2022-11-10T17:53:22.682Z,4.85
2022-11-10T17:55:50.084Z,3.08
2022-11-10T17:58:17.657Z,3.40
2022-11-10T18:00:45.534Z,3.50
2022-11-10T18:03:21.357Z,4.22
2022-11-10T18:05:48.943Z,3.70
2022-11-10T18:08:16.898Z,3.28
2022-11-10T18:10:47.993Z,2.90
2022-11-10T18:13:15.239Z,3.05
2022-11-10T18:15:43.521Z,2.95
2022-11-10T18:18:14.706Z,2.83
2022-11-10T18:20:42.215Z,3.30
2022-11-10T18:23:11.543Z,3.17
2022-11-10T18:25:39.835Z,2.85
2022-11-10T18:28:06.733Z,2.50
2022-11-10T18:30:35.351Z,2.38
2022-11-10T18:33:03.158Z,3.15
2022-11-10T18:35:29.953Z,3.20
2022-11-10T18:37:58.141Z,3.35
2022-11-10T18:40:25.121Z,3.78
2022-11-10T18:42:55.367Z,3.47
2022-11-10T18:45:21.988Z,4.18
2022-11-10T18:47:48.611Z,2.47
2022-11-10T18:50:15.256Z,3.03
2022-11-10T18:52:41.946Z,2.28
2022-11-10T18:55:09.446Z,2.25
2022-11-10T18:57:36.132Z,3.00
2022-11-10T19:00:05.266Z,2.20
2022-11-10T19:02:31.872Z,2.42
2022-11-10T19:04:58.494Z,2.30
2022-11-10T19:07:25.109Z,2.42
2022-11-10T19:09:51.823Z,2.10
2022-11-10T19:12:22.617Z,2.38
2022-11-10T19:14:52.117Z,2.80
2022-11-10T19:17:19.736Z,3.13
2022-11-10T19:19:46.436Z,3.20
2022-11-10T19:22:13.081Z,4.22
2022-11-10T19:25:00.835Z,5.85
2022-11-10T19:27:26.387Z,11.20
2022-11-10T19:29:53.424Z,11.60
2022-11-10T19:32:24.630Z,12.70
2022-11-10T19:34:51.676Z,11.07
2022-11-10T19:37:19.737Z,11.32
2022-11-10T19:39:46.410Z,10.88
2022-11-10T19:42:13.022Z,11.57
2022-11-10T19:44:39.721Z,11.35
2022-11-10T19:47:06.402Z,11.27
2022-11-10T19:49:35.862Z,10.68
2022-11-10T19:52:02.493Z,10.95
2022-11-10T19:54:29.137Z,11.57
2022-11-10T19:56:55.753Z,9.93
2022-11-10T19:59:22.439Z,9.68
2022-11-10T20:01:49.153Z,7.57
2022-11-10T20:04:18.974Z,8.25
2022-11-10T20:06:45.679Z,5.80
2022-11-10T20:09:12.449Z,5.30
2022-11-10T20:11:39.101Z,4.25
2022-11-10T20:14:06.884Z,4.63
2022-11-10T20:16:33.593Z,4.15
2022-11-10T20:19:00.262Z,5.05
2022-11-10T20:21:27.538Z,5.00
2022-11-10T20:23:55.456Z,4.00
2022-11-10T20:26:23.289Z,4.03
2022-11-10T20:28:50.105Z,4.22
2022-11-10T20:31:21.090Z,4.45
2022-11-10T20:33:48.906Z,4.68
2022-11-10T20:36:20.963Z,4.70
2022-11-10T20:38:49.673Z,4.85
2022-11-10T20:41:22.450Z,4.93
2022-11-10T20:43:49.133Z,4.10
2022-11-10T20:46:40.191Z,5.07
2022-11-10T20:49:05.786Z,5.32
2022-11-10T20:51:32.406Z,5.15
2022-11-10T20:54:00.318Z,5.07
